sensor_id;sensor_type;location;lat;lon;timestamp;pressure;altitude;pressure_sealevel;temperature;humidity
84904;BME280;75168;52.096;5.214;2024-02-14T00:00:08;101307.94;;;21.03;41.68
84904;BME280;75168;52.096;5.214;2024-02-14T00:02:40;101304.38;;;21.03;41.42
84904;BME280;75168;52.096;5.214;2024-02-14T00:05:07;101299.97;;;21.03;41.65
84904;BME280;75168;52.096;5.214;2024-02-14T00:07:32;101288.44;;;21.04;41.41
84904;BME280;75168;52.096;5.214;2024-02-14T00:09:57;101293.75;;;21.04;41.71
84904;BME280;75168;52.096;5.214;2024-02-14T00:12:23;101274.34;;;21.02;41.53
84904;BME280;75168;52.096;5.214;2024-02-14T00:14:50;101288.47;;;21.03;41.58
84904;BME280;75168;52.096;5.214;2024-02-14T00:17:15;101278.75;;;21.03;41.79
84904;BME280;75168;52.096;5.214;2024-02-14T00:19:41;101284.06;;;21.03;41.84
84904;BME280;75168;52.096;5.214;2024-02-14T00:22:06;101273.44;;;21.03;41.68
84904;BME280;75168;52.096;5.214;2024-02-14T00:24:31;101277.00;;;21.02;41.78
84904;BME280;75168;52.096;5.214;2024-02-14T00:26:57;101272.56;;;21.03;41.63
84904;BME280;75168;52.096;5.214;2024-02-14T00:29:23;101274.34;;;21.02;41.37
84904;BME280;75168;52.096;5.214;2024-02-14T00:31:49;101270.78;;;21.03;41.63
84904;BME280;75168;52.096;5.214;2024-02-14T00:34:15;101272.56;;;21.03;41.64
84904;BME280;75168;52.096;5.214;2024-02-14T00:36:41;101267.25;;;21.03;41.74
84904;BME280;75168;52.096;5.214;2024-02-14T00:39:06;101256.63;;;21.03;41.81
84904;BME280;75168;52.096;5.214;2024-02-14T00:41:35;101255.78;;;21.02;41.43
84904;BME280;75168;52.096;5.214;2024-02-14T00:44:01;101254.00;;;21.03;41.78
84904;BME280;75168;52.096;5.214;2024-02-14T00:46:26;101252.22;;;21.03;41.51
84904;BME280;75168;52.096;5.214;2024-02-14T00:48:52;101250.47;;;21.02;41.49
84904;BME280;75168;52.096;5.214;2024-02-14T00:51:19;101251.34;;;21.03;41.28
84904;BME280;75168;52.096;5.214;2024-02-14T00:53:45;101248.69;;;21.03;41.39
84904;BME280;75168;52.096;5.214;2024-02-14T00:56:10;101255.78;;;21.02;41.59
84904;BME280;75168;52.096;5.214;2024-02-14T00:58:36;101241.66;;;21.02;41.91
84904;BME280;75168;52.096;5.214;2024-02-14T01:01:01;101244.31;;;21.02;41.33
84904;BME280;75168;52.096;5.214;2024-02-14T01:03:27;101239.91;;;21.01;41.69
84904;BME280;75168;52.096;5.214;2024-02-14T01:05:52;101253.13;;;21.02;41.50
84904;BME280;75168;52.096;5.214;2024-02-14T01:08:18;101242.53;;;21.02;41.69
84904;BME280;75168;52.096;5.214;2024-02-14T01:10:43;101254.03;;;21.01;41.80
84904;BME280;75168;52.096;5.214;2024-02-14T01:13:08;101258.44;;;21.02;41.82
84904;BME280;75168;52.096;5.214;2024-02-14T01:15:34;101241.66;;;21.02;41.42
84904;BME280;75168;52.096;5.214;2024-02-14T01:18:00;101239.88;;;21.02;41.59
84904;BME280;75168;52.096;5.214;2024-02-14T01:20:25;101243.41;;;21.01;41.67
84904;BME280;75168;52.096;5.214;2024-02-14T01:22:51;101239.91;;;21.01;41.75
84904;BME280;75168;52.096;5.214;2024-02-14T01:25:16;101244.31;;;21.02;41.70
84904;BME280;75168;52.096;5.214;2024-02-14T01:27:41;101246.06;;;21.01;41.69
84904;BME280;75168;52.096;5.214;2024-02-14T01:30:09;101247.84;;;21.01;41.71
84904;BME280;75168;52.096;5.214;2024-02-14T01:32:34;101253.16;;;21.01;41.95
84904;BME280;75168;52.096;5.214;2024-02-14T01:35:00;101246.06;;;21.01;41.75
84904;BME280;75168;52.096;5.214;2024-02-14T01:37:26;101261.97;;;21.01;41.86
84904;BME280;75168;52.096;5.214;2024-02-14T01:39:52;101254.91;;;21.02;41.78
84904;BME280;75168;52.096;5.214;2024-02-14T01:42:17;101254.03;;;21.01;41.70
84904;BME280;75168;52.096;5.214;2024-02-14T01:44:43;101254.03;;;21.01;41.66
84904;BME280;75168;52.096;5.214;2024-02-14T01:47:09;101261.97;;;21.01;41.79
84904;BME280;75168;52.096;5.214;2024-02-14T01:49:35;101259.31;;;21.01;41.46
84904;BME280;75168;52.096;5.214;2024-02-14T01:52:02;101254.03;;;21.01;41.63
84904;BME280;75168;52.096;5.214;2024-02-14T01:54:29;101246.06;;;21.01;41.73
84904;BME280;75168;52.096;5.214;2024-02-14T01:56:56;101252.28;;;21.00;41.54
84904;BME280;75168;52.096;5.214;2024-02-14T01:59:21;101251.38;;;21.01;41.64
84904;BME280;75168;52.096;5.214;2024-02-14T02:01:48;101246.97;;;21.02;41.79
84904;BME280;75168;52.096;5.214;2024-02-14T02:04:13;101248.72;;;21.01;41.70
84904;BME280;75168;52.096;5.214;2024-02-14T02:06:39;101249.66;;;21.00;41.67
84904;BME280;75168;52.096;5.214;2024-02-14T02:09:06;101243.41;;;21.01;41.89
84904;BME280;75168;52.096;5.214;2024-02-14T02:11:53;101245.25;;;20.99;41.75
84904;BME280;75168;52.096;5.214;2024-02-14T02:14:21;101235.50;;;21.00;41.64
84904;BME280;75168;52.096;5.214;2024-02-14T02:16:47;101239.06;;;20.99;41.57
84904;BME280;75168;52.096;5.214;2024-02-14T02:19:13;101239.94;;;20.99;41.95
84904;BME280;75168;52.096;5.214;2024-02-14T02:21:41;101250.50;;;21.01;41.59
84904;BME280;75168;52.096;5.214;2024-02-14T02:24:08;101251.41;;;21.00;41.57
84904;BME280;75168;52.096;5.214;2024-02-14T02:26:33;101246.09;;;21.00;41.86
84904;BME280;75168;52.096;5.214;2024-02-14T02:28:58;101251.41;;;21.00;41.77
84904;BME280;75168;52.096;5.214;2024-02-14T02:31:25;101259.34;;;21.00;41.64
84904;BME280;75168;52.096;5.214;2024-02-14T02:33:51;101257.59;;;21.00;41.77
84904;BME280;75168;52.096;5.214;2024-02-14T02:36:17;101247.00;;;21.00;41.90
84904;BME280;75168;52.096;5.214;2024-02-14T02:38:42;101251.41;;;21.00;41.79
84904;BME280;75168;52.096;5.214;2024-02-14T02:41:08;101246.09;;;21.00;41.73
84904;BME280;75168;52.096;5.214;2024-02-14T02:43:34;101244.34;;;21.00;41.77
84904;BME280;75168;52.096;5.214;2024-02-14T02:45:59;101239.94;;;20.99;41.68
84904;BME280;75168;52.096;5.214;2024-02-14T02:48:25;101247.88;;;20.99;41.63
84904;BME280;75168;52.096;5.214;2024-02-14T02:50:51;101251.41;;;21.00;41.71
84904;BME280;75168;52.096;5.214;2024-02-14T02:53:17;101247.84;;;21.01;41.62
84904;BME280;75168;52.096;5.214;2024-02-14T02:55:43;101247.00;;;21.00;41.87
84904;BME280;75168;52.096;5.214;2024-02-14T02:58:08;101241.69;;;21.00;41.50
84904;BME280;75168;52.096;5.214;2024-02-14T03:00:34;101242.56;;;21.01;41.79
84904;BME280;75168;52.096;5.214;2024-02-14T03:02:59;101239.03;;;21.00;41.71
84904;BME280;75168;52.096;5.214;2024-02-14T03:05:25;101244.34;;;21.00;41.73
84904;BME280;75168;52.096;5.214;2024-02-14T03:07:51;101239.91;;;21.01;41.45
84904;BME280;75168;52.096;5.214;2024-02-14T03:10:18;101240.78;;;21.00;41.67
84904;BME280;75168;52.096;5.214;2024-02-14T03:12:47;101241.69;;;21.00;41.85
84904;BME280;75168;52.096;5.214;2024-02-14T03:15:13;101248.75;;;21.00;41.83
84904;BME280;75168;52.096;5.214;2024-02-14T03:17:39;101247.88;;;20.99;41.87
84904;BME280;75168;52.096;5.214;2024-02-14T03:20:05;101248.75;;;21.00;41.54
84904;BME280;75168;52.096;5.214;2024-02-14T03:22:40;101250.53;;;20.99;41.51
84904;BME280;75168;52.096;5.214;2024-02-14T03:25:13;101255.84;;;20.99;41.78
84904;BME280;75168;52.096;5.214;2024-02-14T03:27:39;101246.09;;;21.00;41.41
84904;BME280;75168;52.096;5.214;2024-02-14T03:30:06;101251.41;;;21.00;41.81
84904;BME280;75168;52.096;5.214;2024-02-14T03:32:31;101255.84;;;20.99;41.46
84904;BME280;75168;52.096;5.214;2024-02-14T03:34:58;101259.34;;;21.00;41.75
84904;BME280;75168;52.096;5.214;2024-02-14T03:37:23;101251.41;;;21.00;41.81
84904;BME280;75168;52.096;5.214;2024-02-14T03:39:48;101254.97;;;20.99;41.74
84904;BME280;75168;52.096;5.214;2024-02-14T03:42:14;101254.97;;;20.99;41.70
84904;BME280;75168;52.096;5.214;2024-02-14T03:44:40;101253.19;;;20.99;41.65
84904;BME280;75168;52.096;5.214;2024-02-14T03:47:06;101273.53;;;20.99;41.91
84904;BME280;75168;52.096;5.214;2024-02-14T03:49:31;101266.47;;;20.98;41.53
84904;BME280;75168;52.096;5.214;2024-02-14T03:51:57;101277.06;;;20.99;41.65
84904;BME280;75168;52.096;5.214;2024-02-14T03:54:22;101270.91;;;20.99;41.88
84904;BME280;75168;52.096;5.214;2024-02-14T03:56:49;101260.28;;;20.99;41.52
84904;BME280;75168;52.096;5.214;2024-02-14T03:59:14;101269.09;;;20.99;41.70
84904;BME280;75168;52.096;5.214;2024-02-14T04:01:44;101266.44;;;20.99;41.75
84904;BME280;75168;52.096;5.214;2024-02-14T04:04:10;101261.19;;;20.98;41.82
84904;BME280;75168;52.096;5.214;2024-02-14T04:06:35;101263.81;;;20.99;41.77
84904;BME280;75168;52.096;5.214;2024-02-14T04:09:01;101269.13;;;20.98;41.55
84904;BME280;75168;52.096;5.214;2024-02-14T04:11:26;101265.59;;;20.99;41.73
84904;BME280;75168;52.096;5.214;2024-02-14T04:13:51;101268.25;;;20.99;41.55
84904;BME280;75168;52.096;5.214;2024-02-14T04:16:20;101268.28;;;20.97;41.89
84904;BME280;75168;52.096;5.214;2024-02-14T04:18:47;101275.34;;;20.98;41.51
84904;BME280;75168;52.096;5.214;2024-02-14T04:21:12;101268.28;;;20.97;41.93
84904;BME280;75168;52.096;5.214;2024-02-14T04:23:37;101265.63;;;20.97;41.56
84904;BME280;75168;52.096;5.214;2024-02-14T04:26:04;101275.34;;;20.98;41.51
84904;BME280;75168;52.096;5.214;2024-02-14T04:28:29;101276.22;;;20.97;41.51
84904;BME280;75168;52.096;5.214;2024-02-14T04:30:55;101285.97;;;20.97;41.63
84904;BME280;75168;52.096;5.214;2024-02-14T04:33:21;101278.03;;;20.97;41.49
84904;BME280;75168;52.096;5.214;2024-02-14T04:35:47;101291.25;;;20.98;41.84
84904;BME280;75168;52.096;5.214;2024-02-14T04:38:12;101285.97;;;20.97;41.49
84904;BME280;75168;52.096;5.214;2024-02-14T04:40:38;101295.66;;;20.98;41.79
84904;BME280;75168;52.096;5.214;2024-02-14T04:43:05;101293.91;;;20.98;42.00
84904;BME280;75168;52.096;5.214;2024-02-14T04:45:30;101296.53;;;20.98;41.57
84904;BME280;75168;52.096;5.214;2024-02-14T04:47:55;101303.56;;;20.99;41.73
84904;BME280;75168;52.096;5.214;2024-02-14T04:50:21;101306.25;;;20.98;41.52
84904;BME280;75168;52.096;5.214;2024-02-14T04:52:46;101303.63;;;20.98;41.65
84904;BME280;75168;52.096;5.214;2024-02-14T04:55:12;101301.88;;;20.97;41.80
84904;BME280;75168;52.096;5.214;2024-02-14T04:57:38;101310.69;;;20.97;41.49
84904;BME280;75168;52.096;5.214;2024-02-14T05:00:04;101316.88;;;20.98;41.87
84904;BME280;75168;52.096;5.214;2024-02-14T05:02:30;101316.00;;;20.97;41.99
84904;BME280;75168;52.096;5.214;2024-02-14T05:04:56;101315.97;;;20.99;41.97
84904;BME280;75168;52.096;5.214;2024-02-14T05:07:21;101314.19;;;20.99;41.77
84904;BME280;75168;52.096;5.214;2024-02-14T05:09:47;101318.63;;;20.99;41.87
84904;BME280;75168;52.096;5.214;2024-02-14T05:12:15;101320.41;;;20.98;41.51
84904;BME280;75168;52.096;5.214;2024-02-14T05:14:40;101322.16;;;20.98;41.39
84904;BME280;75168;52.096;5.214;2024-02-14T05:17:07;101316.00;;;20.97;41.65
84904;BME280;75168;52.096;5.214;2024-02-14T05:19:33;101324.84;;;20.96;41.92
84904;BME280;75168;52.096;5.214;2024-02-14T05:21:58;101323.97;;;20.97;42.06
84904;BME280;75168;52.096;5.214;2024-02-14T05:24:24;101324.81;;;20.98;41.68
84904;BME280;75168;52.096;5.214;2024-02-14T05:26:52;101321.31;;;20.97;41.51
84904;BME280;75168;52.096;5.214;2024-02-14T05:29:18;101324.81;;;20.98;41.55
84904;BME280;75168;52.096;5.214;2024-02-14T05:31:46;101326.59;;;20.99;41.81
84904;BME280;75168;52.096;5.214;2024-02-14T05:34:13;101325.72;;;20.98;41.63
84904;BME280;75168;52.096;5.214;2024-02-14T05:36:39;101324.84;;;20.96;41.60
84904;BME280;75168;52.096;5.214;2024-02-14T05:39:04;101330.13;;;20.98;41.69
84904;BME280;75168;52.096;5.214;2024-02-14T05:41:33;101331.88;;;20.99;41.44
84904;BME280;75168;52.096;5.214;2024-02-14T05:44:00;101328.41;;;20.97;41.92
84904;BME280;75168;52.096;5.214;2024-02-14T05:46:25;101333.72;;;20.97;41.47
84904;BME280;75168;52.096;5.214;2024-02-14T05:48:51;101337.22;;;20.97;41.63
84904;BME280;75168;52.096;5.214;2024-02-14T05:51:18;101329.25;;;20.97;41.73
84904;BME280;75168;52.096;5.214;2024-02-14T05:53:43;101335.47;;;20.96;41.80
84904;BME280;75168;52.096;5.214;2024-02-14T05:56:09;101330.16;;;20.96;41.62
84904;BME280;75168;52.096;5.214;2024-02-14T05:58:34;101332.81;;;20.96;41.94
84904;BME280;75168;52.096;5.214;2024-02-14T06:01:01;101339.84;;;20.99;41.95
84904;BME280;75168;52.096;5.214;2024-02-14T06:03:26;101333.72;;;20.97;41.61
84904;BME280;75168;52.096;5.214;2024-02-14T06:05:51;101339.00;;;20.97;41.68
84904;BME280;75168;52.096;5.214;2024-02-14T06:08:17;101340.75;;;20.96;41.73
84904;BME280;75168;52.096;5.214;2024-02-14T06:10:42;101337.22;;;20.97;41.48
84904;BME280;75168;52.096;5.214;2024-02-14T06:13:07;101341.66;;;20.97;41.74
84904;BME280;75168;52.096;5.214;2024-02-14T06:15:33;101338.13;;;20.96;41.55
84904;BME280;75168;52.096;5.214;2024-02-14T06:17:58;101344.34;;;20.95;41.88
84904;BME280;75168;52.096;5.214;2024-02-14T06:20:24;101344.34;;;20.95;41.65
84904;BME280;75168;52.096;5.214;2024-02-14T06:22:49;101342.56;;;20.96;41.99
84904;BME280;75168;52.096;5.214;2024-02-14T06:25:15;101347.84;;;20.96;41.62
84904;BME280;75168;52.096;5.214;2024-02-14T06:27:41;101352.28;;;20.97;41.89
84904;BME280;75168;52.096;5.214;2024-02-14T06:30:08;101357.56;;;20.97;42.01
84904;BME280;75168;52.096;5.214;2024-02-14T06:32:33;101367.28;;;20.96;41.71
84904;BME280;75168;52.096;5.214;2024-02-14T06:34:58;101367.28;;;20.96;41.63
84904;BME280;75168;52.096;5.214;2024-02-14T06:37:24;101371.72;;;20.96;41.61
84904;BME280;75168;52.096;5.214;2024-02-14T06:39:49;101380.53;;;20.96;41.72
84904;BME280;75168;52.096;5.214;2024-02-14T06:42:16;101375.25;;;20.96;41.74
84904;BME280;75168;52.096;5.214;2024-02-14T06:44:41;101386.78;;;20.95;41.95
84904;BME280;75168;52.096;5.214;2024-02-14T06:47:07;101393.81;;;20.96;41.83
84904;BME280;75168;52.096;5.214;2024-02-14T06:49:32;101383.19;;;20.96;41.94
84904;BME280;75168;52.096;5.214;2024-02-14T06:51:57;101382.34;;;20.96;41.65
84904;BME280;75168;52.096;5.214;2024-02-14T06:54:23;101383.19;;;20.96;41.67
84904;BME280;75168;52.096;5.214;2024-02-14T06:56:48;101383.19;;;20.96;41.93
84904;BME280;75168;52.096;5.214;2024-02-14T06:59:14;101381.47;;;20.95;41.77
84904;BME280;75168;52.096;5.214;2024-02-14T07:01:39;101384.97;;;20.96;41.90
84904;BME280;75168;52.096;5.214;2024-02-14T07:04:04;101393.81;;;20.96;41.69
84904;BME280;75168;52.096;5.214;2024-02-14T07:06:30;101389.41;;;20.95;41.95
84904;BME280;75168;52.096;5.214;2024-02-14T07:08:56;101394.72;;;20.95;41.66
84904;BME280;75168;52.096;5.214;2024-02-14T07:11:21;101400.91;;;20.96;41.50
84904;BME280;75168;52.096;5.214;2024-02-14T07:13:46;101392.94;;;20.96;42.00
84904;BME280;75168;52.096;5.214;2024-02-14T07:16:12;101396.44;;;20.96;41.60
84904;BME280;75168;52.096;5.214;2024-02-14T07:18:37;101392.94;;;20.96;41.87
84904;BME280;75168;52.096;5.214;2024-02-14T07:21:03;101397.38;;;20.95;41.82
84904;BME280;75168;52.096;5.214;2024-02-14T07:23:31;101403.53;;;20.96;41.77
84904;BME280;75168;52.096;5.214;2024-02-14T07:25:56;101401.75;;;20.96;42.06
84904;BME280;75168;52.096;5.214;2024-02-14T07:28:21;101403.53;;;20.96;41.81
84904;BME280;75168;52.096;5.214;2024-02-14T07:30:47;101406.19;;;20.96;41.69
84904;BME280;75168;52.096;5.214;2024-02-14T07:33:12;101408.00;;;20.95;41.92
84904;BME280;75168;52.096;5.214;2024-02-14T07:35:38;101397.38;;;20.95;41.68
84904;BME280;75168;52.096;5.214;2024-02-14T07:38:03;101390.28;;;20.96;41.89
84904;BME280;75168;52.096;5.214;2024-02-14T07:40:29;101402.69;;;20.95;42.13
84904;BME280;75168;52.096;5.214;2024-02-14T07:43:00;101406.19;;;20.96;41.90
84904;BME280;75168;52.096;5.214;2024-02-14T07:45:25;101400.00;;;20.97;41.72
84904;BME280;75168;52.096;5.214;2024-02-14T07:47:51;101399.16;;;20.95;41.87
84904;BME280;75168;52.096;5.214;2024-02-14T07:50:16;101402.69;;;20.95;41.94
84904;BME280;75168;52.096;5.214;2024-02-14T07:52:42;101403.53;;;20.96;41.75
84904;BME280;75168;52.096;5.214;2024-02-14T07:55:09;101408.00;;;20.95;41.89
84904;BME280;75168;52.096;5.214;2024-02-14T07:57:37;101398.25;;;20.96;41.76
84904;BME280;75168;52.096;5.214;2024-02-14T08:00:04;101404.47;;;20.95;41.99
84904;BME280;75168;52.096;5.214;2024-02-14T08:02:30;101415.03;;;20.96;41.66
84904;BME280;75168;52.096;5.214;2024-02-14T08:04:55;101412.38;;;20.96;41.76
84904;BME280;75168;52.096;5.214;2024-02-14T08:07:20;101408.84;;;20.96;42.01
84904;BME280;75168;52.096;5.214;2024-02-14T08:09:46;101414.16;;;20.96;42.01
84904;BME280;75168;52.096;5.214;2024-02-14T08:12:11;101407.13;;;20.95;41.81
84904;BME280;75168;52.096;5.214;2024-02-14T08:14:36;101419.47;;;20.96;42.09
84904;BME280;75168;52.096;5.214;2024-02-14T08:17:02;101424.75;;;20.96;41.96
84904;BME280;75168;52.096;5.214;2024-02-14T08:19:27;101425.63;;;20.96;41.89
84904;BME280;75168;52.096;5.214;2024-02-14T08:21:53;101426.53;;;20.97;41.71
84904;BME280;75168;52.096;5.214;2024-02-14T08:24:25;101432.69;;;20.97;41.67
84904;BME280;75168;52.096;5.214;2024-02-14T08:26:50;101430.94;;;20.96;41.89
84904;BME280;75168;52.096;5.214;2024-02-14T08:29:15;101430.94;;;20.96;41.92
84904;BME280;75168;52.096;5.214;2024-02-14T08:31:41;101428.28;;;20.96;41.62
84904;BME280;75168;52.096;5.214;2024-02-14T08:34:06;101428.28;;;20.96;41.82
84904;BME280;75168;52.096;5.214;2024-02-14T08:36:31;101422.97;;;20.96;42.00
84904;BME280;75168;52.096;5.214;2024-02-14T08:38:58;101427.38;;;20.97;41.83
84904;BME280;75168;52.096;5.214;2024-02-14T08:41:23;101425.63;;;20.96;41.71
84904;BME280;75168;52.096;5.214;2024-02-14T08:43:49;101432.69;;;20.97;41.95
84904;BME280;75168;52.096;5.214;2024-02-14T08:46:16;101427.38;;;20.97;42.02
84904;BME280;75168;52.096;5.214;2024-02-14T08:48:42;101417.63;;;20.98;41.95
84904;BME280;75168;52.096;5.214;2024-02-14T08:51:14;101431.81;;;20.97;42.06
84904;BME280;75168;52.096;5.214;2024-02-14T08:53:39;101423.88;;;20.97;42.12
84904;BME280;75168;52.096;5.214;2024-02-14T08:56:07;101430.03;;;20.97;41.81
84904;BME280;75168;52.096;5.214;2024-02-14T08:58:34;101433.56;;;20.96;41.94
84904;BME280;75168;52.096;5.214;2024-02-14T09:01:00;101445.06;;;20.98;41.85
84904;BME280;75168;52.096;5.214;2024-02-14T09:03:25;101443.28;;;20.97;42.02
84904;BME280;75168;52.096;5.214;2024-02-14T09:05:51;101446.81;;;20.98;42.08
84904;BME280;75168;52.096;5.214;2024-02-14T09:08:18;101443.25;;;20.99;41.93
84904;BME280;75168;52.096;5.214;2024-02-14T09:10:44;101441.53;;;20.96;41.99
84904;BME280;75168;52.096;5.214;2024-02-14T09:13:11;101438.00;;;20.97;42.11
84904;BME280;75168;52.096;5.214;2024-02-14T09:15:36;101437.09;;;20.98;41.90
84904;BME280;75168;52.096;5.214;2024-02-14T09:18:02;101438.81;;;20.99;41.91
84904;BME280;75168;52.096;5.214;2024-02-14T09:20:28;101439.75;;;20.98;42.15
84904;BME280;75168;52.096;5.214;2024-02-14T09:22:55;101445.06;;;20.98;42.08
84904;BME280;75168;52.096;5.214;2024-02-14T09:25:21;101442.34;;;21.00;42.10
84904;BME280;75168;52.096;5.214;2024-02-14T09:27:49;101452.09;;;20.99;42.20
84904;BME280;75168;52.096;5.214;2024-02-14T09:30:14;101457.38;;;20.99;41.85
84904;BME280;75168;52.096;5.214;2024-02-14T09:32:43;101460.91;;;21.00;42.21
84904;BME280;75168;52.096;5.214;2024-02-14T09:35:08;101469.78;;;20.99;42.00
84904;BME280;75168;52.096;5.214;2024-02-14T09:37:33;101473.31;;;20.99;42.27
84904;BME280;75168;52.096;5.214;2024-02-14T09:39:59;101469.78;;;20.99;41.85
84904;BME280;75168;52.096;5.214;2024-02-14T09:42:44;101475.13;;;20.97;42.07
84904;BME280;75168;52.096;5.214;2024-02-14T09:45:14;101464.50;;;20.97;41.96
84904;BME280;75168;52.096;5.214;2024-02-14T09:47:40;101459.22;;;20.97;41.87
84904;BME280;75168;52.096;5.214;2024-02-14T09:50:07;101459.19;;;20.99;42.12
84904;BME280;75168;52.096;5.214;2024-02-14T09:52:33;101465.38;;;20.98;42.01
84904;BME280;75168;52.096;5.214;2024-02-14T09:54:59;101464.47;;;20.99;42.14
84904;BME280;75168;52.096;5.214;2024-02-14T09:57:25;101480.41;;;20.99;42.14
84904;BME280;75168;52.096;5.214;2024-02-14T09:59:53;101480.41;;;20.99;41.95
84904;BME280;75168;52.096;5.214;2024-02-14T10:02:19;101484.84;;;20.98;42.22
84904;BME280;75168;52.096;5.214;2024-02-14T10:04:44;101490.06;;;21.00;42.20
84904;BME280;75168;52.096;5.214;2024-02-14T10:07:10;101497.16;;;20.99;42.20
84904;BME280;75168;52.096;5.214;2024-02-14T10:09:42;101479.53;;;20.98;41.88
84904;BME280;75168;52.096;5.214;2024-02-14T10:12:09;101489.22;;;20.99;42.08
84904;BME280;75168;52.096;5.214;2024-02-14T10:14:35;101488.34;;;20.99;42.06
84904;BME280;75168;52.096;5.214;2024-02-14T10:17:02;101485.66;;;21.00;42.24
84904;BME280;75168;52.096;5.214;2024-02-14T10:19:28;101483.91;;;20.99;41.97
84904;BME280;75168;52.096;5.214;2024-02-14T10:24:26;101483.03;;;21.00;42.23
84904;BME280;75168;52.096;5.214;2024-02-14T10:26:52;101488.31;;;21.00;42.09
84904;BME280;75168;52.096;5.214;2024-02-14T10:29:19;101485.66;;;21.00;42.11
84904;BME280;75168;52.096;5.214;2024-02-14T10:31:46;101490.06;;;21.01;42.03
84904;BME280;75168;52.096;5.214;2024-02-14T10:34:12;101488.31;;;21.00;42.16
84904;BME280;75168;52.096;5.214;2024-02-14T10:36:37;101506.84;;;21.02;41.86
84904;BME280;75168;52.096;5.214;2024-02-14T10:39:05;101509.50;;;21.02;42.02
84904;BME280;75168;52.096;5.214;2024-02-14T10:41:33;101505.06;;;21.02;41.79
84904;BME280;75168;52.096;5.214;2024-02-14T10:44:04;101511.28;;;21.01;42.33
84904;BME280;75168;52.096;5.214;2024-02-14T10:46:37;101505.09;;;21.01;42.06
84904;BME280;75168;52.096;5.214;2024-02-14T10:49:05;101510.41;;;21.01;42.26
84904;BME280;75168;52.096;5.214;2024-02-14T10:51:34;101518.38;;;21.01;42.05
84904;BME280;75168;52.096;5.214;2024-02-14T10:54:04;101514.84;;;21.00;41.90
84904;BME280;75168;52.096;5.214;2024-02-14T10:56:32;101510.41;;;21.01;42.10
84904;BME280;75168;52.096;5.214;2024-02-14T10:58:58;101513.06;;;21.01;41.90
84904;BME280;75168;52.096;5.214;2024-02-14T11:01:28;101514.81;;;21.02;42.10
84904;BME280;75168;52.096;5.214;2024-02-14T11:04:00;101507.75;;;21.01;42.35
84904;BME280;75168;52.096;5.214;2024-02-14T11:06:27;101505.97;;;21.01;42.09
84904;BME280;75168;52.096;5.214;2024-02-14T11:09:02;101501.59;;;21.00;42.17
84904;BME280;75168;52.096;5.214;2024-02-14T11:11:34;101506.88;;;21.00;42.25
84904;BME280;75168;52.096;5.214;2024-02-14T11:13:59;101504.22;;;21.00;42.37
84904;BME280;75168;52.096;5.214;2024-02-14T11:16:26;101502.44;;;21.01;42.10
84904;BME280;75168;52.096;5.214;2024-02-14T11:19:12;101508.63;;;21.01;42.20
84904;BME280;75168;52.096;5.214;2024-02-14T11:21:47;101493.63;;;21.00;42.07
84904;BME280;75168;52.096;5.214;2024-02-14T11:24:14;101491.84;;;21.01;42.09
84904;BME280;75168;52.096;5.214;2024-02-14T11:26:50;101493.63;;;21.00;42.23
84904;BME280;75168;52.096;5.214;2024-02-14T11:29:17;101496.28;;;21.00;42.00
84904;BME280;75168;52.096;5.214;2024-02-14T11:31:44;101492.69;;;21.01;41.96
84904;BME280;75168;52.096;5.214;2024-02-14T11:34:13;101489.19;;;21.01;42.43
84904;BME280;75168;52.096;5.214;2024-02-14T11:36:41;101490.03;;;21.03;42.38
84904;BME280;75168;52.096;5.214;2024-02-14T11:39:07;101478.56;;;21.02;42.12
84904;BME280;75168;52.096;5.214;2024-02-14T11:41:35;101484.72;;;21.03;42.30
84904;BME280;75168;52.096;5.214;2024-02-14T11:44:02;101485.63;;;21.03;41.99
84904;BME280;75168;52.096;5.214;2024-02-14T11:46:38;101485.63;;;21.03;42.22
84904;BME280;75168;52.096;5.214;2024-02-14T11:49:05;101480.31;;;21.03;42.35
84904;BME280;75168;52.096;5.214;2024-02-14T11:51:32;101483.84;;;21.02;42.00
84904;BME280;75168;52.096;5.214;2024-02-14T11:53:59;101479.41;;;21.03;41.96
84904;BME280;75168;52.096;5.214;2024-02-14T11:56:39;101479.41;;;21.03;42.06
84904;BME280;75168;52.096;5.214;2024-02-14T11:59:07;101478.56;;;21.02;42.22
84904;BME280;75168;52.096;5.214;2024-02-14T12:01:35;101470.59;;;21.02;42.11
84904;BME280;75168;52.096;5.214;2024-02-14T12:04:03;101472.34;;;21.03;42.05
84904;BME280;75168;52.096;5.214;2024-02-14T12:06:30;101467.06;;;21.03;42.48
84904;BME280;75168;52.096;5.214;2024-02-14T12:09:05;101469.72;;;21.03;42.31
84904;BME280;75168;52.096;5.214;2024-02-14T12:11:31;101467.06;;;21.03;42.32
84904;BME280;75168;52.096;5.214;2024-02-14T12:14:01;101467.06;;;21.03;42.04
84904;BME280;75168;52.096;5.214;2024-02-14T12:16:27;101463.69;;;20.95;42.14
84904;BME280;75168;52.096;5.214;2024-02-14T12:19:24;101465.41;;;20.96;42.26
84904;BME280;75168;52.096;5.214;2024-02-14T12:21:48;101468.91;;;20.98;42.46
84904;BME280;75168;52.096;5.214;2024-02-14T12:24:14;101482.13;;;21.00;42.31
84904;BME280;75168;52.096;5.214;2024-02-14T12:26:41;101475.06;;;21.00;42.24
84904;BME280;75168;52.096;5.214;2024-02-14T12:29:08;101463.53;;;21.01;42.35
84904;BME280;75168;52.096;5.214;2024-02-14T12:31:34;101455.56;;;21.01;42.37
84904;BME280;75168;52.096;5.214;2024-02-14T12:34:02;101462.63;;;21.02;41.91
84904;BME280;75168;52.096;5.214;2024-02-14T12:36:31;101474.13;;;21.03;42.48
84904;BME280;75168;52.096;5.214;2024-02-14T12:39:01;101470.59;;;21.02;42.25
84904;BME280;75168;52.096;5.214;2024-02-14T12:41:30;101478.56;;;21.02;42.35
84904;BME280;75168;52.096;5.214;2024-02-14T12:44:00;101470.59;;;21.02;42.22
84904;BME280;75168;52.096;5.214;2024-02-14T12:46:26;101475.91;;;21.02;42.24
84904;BME280;75168;52.096;5.214;2024-02-14T12:48:52;101472.34;;;21.03;42.18